To NAV CANADA Home Page Login to a new session Search on AWWS site Feedback and Comments Disclaimer Vers la page française équivalente Tips FAQ What's new on the site To the Forecasts and Observations / NOTAM section To "File a Flight Plan" website Publications and other links Update of the User's profile FIC Telephone Numbers My Weather Data Folder Route Weather Data Regional Weather Data Local Weather Data To the Forecasts and Observations / NOTAM section
Request Generated 03/01/2015 at 16:37:41 UTC . Weather information available at that time is displayed.

METAR/TAF

COLD LAKE/GROUP CAPTAIN R.W. MCNAIR/AB    

SPECI CYOD 011627Z 00000KT 1 1/2SM -SHSN BR OVC002 M15/M17 A3019 RMK ST8 PCPN VRY LGT SLP268=
SPECI CYOD 011609Z 00000KT 2SM -SHSN BR OVC003 M15/M18 A3019 RMK ST8 PCPN VRY LGT SLP269=
METAR CYOD 011600Z CCA 00000KT 8SM -SHSN OVC003 M16/M18 A3019 RMK ST8 VIS LWR N PCPN VRY LGT SLP269=
METAR CYOD 011600Z 00000KT 8SM -SHSN OVC003 M16/M18 A3019 RMK ST8 VIS LWR N PCPCN VRY LGT SLP269=
SPECI CYOD 011529Z 00000KT 12SM SCT003 OVC008 M17/M20 A3019 RMK ST4SC2 SLP270=
METAR CYOD 011500Z 00000KT 15SM FEW005 SCT012 BKN240 M19/M23 A3019 RMK SC2SC2CI1 FROIN SLP271=
SPECI CYOD 011444Z 00000KT 15SM FEW005 FEW012 FEW240 M19/M23 A3019 RMK SC1SC1CI0 SLP269=
METAR CYOD 011400Z 00000KT 15SM FEW012 M18/M19 A3020 RMK SC1 FROIN SLP271=

TAF AMD CYOD 011619Z 0116/0212 VRB03KT 2SM -SHSN BR OVC003
BECMG 0116/0118 20010KT P6SM NSW FEW008 SCT040
FM020300 18008KT P6SM SCT080 OVC140
FM020600 23010KT P6SM -SN SCT020 OVC060 TEMPO 0206/0212 5SM -SN
OVC020
BECMG 0208/0210 31012KT
RMK NXT FCST BY 011800Z=
Your time UTC time
Weather data provided by Environment Canada and NAV CANADA